Time;durP1;ratioP1;P1;durP2;ratioP2;P2;SDS_P1;SDS_P2;PMS_P1;PMS_P2;Temp;Humidity;BMP_temperature;BMP_pressure;BME280_temperature;BME280_humidity;BME280_pressure;Samples;Min_cycle;Max_cycle;Signal;HPM_P1;HPM_P2
2023/01/08 00:02:10;;;;;;;8.68;7.90;;;5.90;99.90;;;;;;6146482;23;20278;-66
2023/01/08 00:04:37;;;;;;;8.82;8.02;;;5.90;99.90;;;;;;6147943;23;20274;-66
2023/01/08 00:07:04;;;;;;;8.35;7.65;;;5.90;99.90;;;;;;6133508;23;20717;-66
2023/01/08 00:09:31;;;;;;;7.65;6.95;;;5.90;99.90;;;;;;6149094;23;20194;-66
2023/01/08 00:11:58;;;;;;;8.15;7.38;;;5.90;99.90;;;;;;6146858;23;20279;-66
2023/01/08 00:14:25;;;;;;;8.45;7.10;;;5.90;99.90;;;;;;6143778;23;20201;-65
2023/01/08 00:16:53;;;;;;;9.27;8.38;;;5.90;99.90;;;;;;6150220;23;20286;-66
2023/01/08 00:19:20;;;;;;;9.15;8.35;;;5.90;99.90;;;;;;6146903;23;20677;-66
2023/01/08 00:21:47;;;;;;;8.95;8.20;;;5.90;99.90;;;;;;6136680;23;20191;-65
2023/01/08 00:24:14;;;;;;;7.93;7.30;;;5.90;99.90;;;;;;6140567;23;20269;-65
2023/01/08 00:26:41;;;;;;;9.00;8.10;;;5.90;99.90;;;;;;6134431;23;20281;-66
2023/01/08 00:29:08;;;;;;;8.40;7.70;;;5.90;99.90;;;;;;6146684;23;20535;-66
2023/01/08 00:31:35;;;;;;;8.60;7.78;;;5.90;99.90;;;;;;6140901;23;20218;-66
2023/01/08 00:34:04;;;;;;;8.73;7.93;;;5.90;99.90;;;;;;6146069;23;20195;-66
2023/01/08 00:36:31;;;;;;;8.07;7.30;;;5.80;99.90;;;;;;6145365;23;20232;-66
2023/01/08 00:38:59;;;;;;;7.95;7.32;;;5.80;99.90;;;;;;6146651;23;20205;-66
2023/01/08 00:41:26;;;;;;;9.18;8.30;;;5.80;99.90;;;;;;6147934;23;21569;-66
2023/01/08 00:43:53;;;;;;;8.77;7.97;;;5.80;99.90;;;;;;6131685;23;20778;-66
2023/01/08 00:46:20;;;;;;;7.85;7.15;;;5.70;99.90;;;;;;6125213;23;20246;-65
2023/01/08 00:48:47;;;;;;;8.20;7.18;;;5.70;99.90;;;;;;6145247;23;20222;-64
2023/01/08 00:51:15;;;;;;;7.70;6.93;;;5.80;99.90;;;;;;6147293;23;20310;-64
2023/01/08 00:53:42;;;;;;;8.60;7.80;;;5.80;99.90;;;;;;6148096;23;20198;-65
2023/01/08 00:56:10;;;;;;;8.20;7.40;;;5.80;99.90;;;;;;6147200;23;20226;-65
2023/01/08 00:58:37;;;;;;;7.82;7.13;;;5.90;99.90;;;;;;6148209;23;20214;-66
2023/01/08 01:01:09;;;;;;;7.82;7.13;;;5.90;99.90;;;;;;6143562;23;20314;-66
2023/01/08 01:03:55;;;;;;;8.00;7.30;;;6.00;99.90;;;;;;6137698;23;20619;-66
2023/01/08 01:06:23;;;;;;;8.10;7.43;;;6.00;99.90;;;;;;6147329;23;20231;-66
2023/01/08 01:08:51;;;;;;;9.50;8.25;;;6.00;99.90;;;;;;6146838;23;20194;-66
2023/01/08 01:11:20;;;;;;;8.57;7.68;;;6.00;99.90;;;;;;6149663;23;20215;-66
2023/01/08 01:13:48;;;;;;;7.40;6.80;;;6.00;99.90;;;;;;6145009;23;20186;-66
2023/01/08 01:16:15;;;;;;;8.00;7.30;;;6.00;99.90;;;;;;6145349;23;20195;-66
2023/01/08 01:18:43;;;;;;;7.95;7.25;;;6.00;99.90;;;;;;6145919;23;20697;-66
2023/01/08 01:21:11;;;;;;;7.78;7.07;;;6.00;99.90;;;;;;6148350;23;20194;-66
2023/01/08 01:23:41;;;;;;;7.70;7.00;;;6.00;99.90;;;;;;6148750;23;20191;-66
2023/01/08 01:26:15;;;;;;;7.97;7.28;;;6.10;99.90;;;;;;6148289;23;20244;-66
2023/01/08 01:28:43;;;;;;;8.00;7.30;;;6.00;99.90;;;;;;6143050;23;20291;-66
2023/01/08 01:31:12;;;;;;;7.50;6.80;;;6.00;99.90;;;;;;6145541;23;20609;-66
2023/01/08 01:33:39;;;;;;;7.93;7.13;;;6.00;99.90;;;;;;6143720;23;20195;-66
2023/01/08 01:36:06;;;;;;;8.38;7.38;;;6.00;99.90;;;;;;6146753;23;20273;-66
2023/01/08 01:38:33;;;;;;;7.40;6.70;;;6.00;99.90;;;;;;6131888;23;20270;-66
2023/01/08 01:41:02;;;;;;;8.00;7.30;;;6.00;99.90;;;;;;6149183;23;20225;-66
2023/01/08 01:43:38;;;;;;;8.50;7.70;;;6.10;99.90;;;;;;6145592;23;20646;-66
2023/01/08 01:46:16;;;;;;;9.30;8.40;;;6.10;99.90;;;;;;6145845;23;20194;-66
2023/01/08 01:48:44;;;;;;;7.10;6.50;;;6.40;99.90;;;;;;6138609;23;20313;-66
2023/01/08 01:51:10;;;;;;;8.43;7.68;;;6.10;99.90;;;;;;6148241;23;20335;-65
2023/01/08 01:53:40;;;;;;;8.32;7.43;;;6.10;99.90;;;;;;6147762;23;20663;-65
2023/01/08 01:56:09;;;;;;;7.80;7.00;;;6.10;99.90;;;;;;6148621;23;20293;-65
2023/01/08 01:58:36;;;;;;;8.82;7.93;;;6.00;99.90;;;;;;6125246;23;20647;-66
2023/01/08 02:01:06;;;;;;;8.40;7.50;;;6.00;99.90;;;;;;6135648;23;20667;-66
2023/01/08 02:03:35;;;;;;;8.65;7.43;;;6.00;99.90;;;;;;6145377;23;20186;-65
2023/01/08 02:06:16;;;;;;;8.95;7.50;;;6.10;99.90;;;;;;6148074;23;20195;-65
2023/01/08 02:08:56;;;;;;;7.97;7.13;;;6.10;99.90;;;;;;6146533;23;20809;-65
2023/01/08 02:11:31;;;;;;;7.90;7.10;;;6.10;99.90;;;;;;6147252;23;20207;-67
2023/01/08 02:14:04;;;;;;;8.82;8.00;;;6.10;99.90;;;;;;6147438;23;20211;-66
2023/01/08 02:16:40;;;;;;;7.60;6.90;;;6.10;99.90;;;;;;6135187;23;20674;-66
2023/01/08 02:19:17;;;;;;;7.80;7.10;;;6.10;99.90;;;;;;6146967;23;20209;-66
2023/01/08 02:21:58;;;;;;;7.40;6.70;;;6.20;99.90;;;;;;6148761;23;20198;-66
2023/01/08 02:24:37;;;;;;;8.60;7.85;;;6.20;99.90;;;;;;6120187;23;20274;-66
2023/01/08 02:27:08;;;;;;;7.80;7.03;;;6.10;99.90;;;;;;6137902;23;20603;-66
2023/01/08 02:29:36;;;;;;;8.13;7.43;;;6.10;99.90;;;;;;6135653;23;20218;-66
2023/01/08 02:32:03;;;;;;;8.20;7.50;;;6.00;99.90;;;;;;6134931;23;20305;-65
2023/01/08 02:34:31;;;;;;;8.38;7.65;;;6.00;99.90;;;;;;6137826;23;20200;-65
2023/01/08 02:37:00;;;;;;;8.95;8.05;;;5.90;99.90;;;;;;6143758;23;20705;-66
2023/01/08 02:39:53;;;;;;;8.27;7.57;;;5.90;99.90;;;;;;6146425;23;20233;-66
2023/01/08 02:42:30;;;;;;;8.20;7.45;;;5.90;99.90;;;;;;6135476;23;20187;-66
2023/01/08 02:45:00;;;;;;;8.77;7.97;;;5.80;99.90;;;;;;6144662;23;20186;-66
2023/01/08 02:47:32;;;;;;;8.85;7.97;;;5.90;99.90;;;;;;6141858;23;20286;-66
2023/01/08 02:50:07;;;;;;;8.82;7.93;;;5.80;99.90;;;;;;6144620;23;20217;-66
2023/01/08 02:52:40;;;;;;;8.50;7.80;;;5.80;99.90;;;;;;6136536;23;20762;-66
2023/01/08 02:55:09;;;;;;;8.95;8.15;;;5.80;99.90;;;;;;6147601;23;20191;-66
2023/01/08 02:57:38;;;;;;;8.55;7.85;;;5.80;99.90;;;;;;6148150;23;20222;-66
2023/01/08 03:00:06;;;;;;;8.90;8.05;;;5.80;99.90;;;;;;6146253;23;20742;-66
2023/01/08 03:02:37;;;;;;;8.48;7.65;;;5.90;99.90;;;;;;6142775;23;20187;-66
2023/01/08 03:05:12;;;;;;;8.85;8.15;;;5.90;99.90;;;;;;6148519;23;20270;-67
2023/01/08 03:07:39;;;;;;;8.48;7.70;;;5.90;99.90;;;;;;6135415;23;20746;-66
2023/01/08 03:10:08;;;;;;;8.30;7.55;;;6.00;99.90;;;;;;6123462;23;20269;-66
2023/01/08 03:12:47;;;;;;;9.65;8.85;;;6.00;99.90;;;;;;6120649;23;20246;-67
2023/01/08 03:15:22;;;;;;;9.10;8.30;;;6.00;99.90;;;;;;6141223;23;20755;-66
2023/01/08 03:17:52;;;;;;;8.75;7.97;;;6.10;99.90;;;;;;6124192;23;20809;-66
2023/01/08 03:20:23;;;;;;;8.65;7.85;;;6.10;99.90;;;;;;6135439;23;20270;-67
2023/01/08 03:22:54;;;;;;;10.02;9.07;;;6.10;99.90;;;;;;6144157;23;20269;-66
2023/01/08 03:25:24;;;;;;;8.90;8.10;;;6.10;99.90;;;;;;6148367;23;20199;-66
2023/01/08 03:27:55;;;;;;;7.85;7.15;;;6.10;99.90;;;;;;6146182;23;20213;-66
2023/01/08 03:30:24;;;;;;;8.23;7.45;;;6.10;99.90;;;;;;6147056;23;20190;-67
2023/01/08 03:32:53;;;;;;;9.75;8.82;;;6.10;99.90;;;;;;6143386;23;20219;-66
2023/01/08 03:35:23;;;;;;;8.63;7.93;;;6.10;99.90;;;;;;6149324;23;20266;-67
2023/01/08 03:37:56;;;;;;;8.68;7.88;;;6.20;99.90;;;;;;6146826;23;20297;-67
2023/01/08 03:40:28;;;;;;;9.20;8.40;;;6.20;99.90;;;;;;6136314;23;20245;-66
2023/01/08 03:42:57;;;;;;;8.27;7.47;;;6.20;99.90;;;;;;6128209;23;20685;-66
2023/01/08 03:45:26;;;;;;;8.80;8.00;;;6.20;99.90;;;;;;6146540;23;20190;-67
2023/01/08 03:47:54;;;;;;;8.65;7.75;;;6.20;99.90;;;;;;6145850;23;20280;-66
2023/01/08 03:50:25;;;;;;;8.85;8.05;;;6.20;99.90;;;;;;6142897;23;20194;-67
2023/01/08 03:52:52;;;;;;;8.13;7.43;;;6.20;99.90;;;;;;6141047;23;20221;-66
2023/01/08 03:55:20;;;;;;;8.48;7.75;;;6.20;99.90;;;;;;6145955;23;20193;-67
2023/01/08 03:57:47;;;;;;;8.30;7.60;;;6.20;99.90;;;;;;6133745;23;20242;-67
2023/01/08 04:00:16;;;;;;;8.75;7.90;;;6.20;99.90;;;;;;6142156;23;20605;-67
2023/01/08 04:02:43;;;;;;;8.90;8.10;;;6.20;99.90;;;;;;6137004;23;20188;-66
2023/01/08 04:05:10;;;;;;;8.88;8.07;;;6.20;99.90;;;;;;6130977;23;20202;-67
2023/01/08 04:07:37;;;;;;;9.23;8.40;;;6.20;99.90;;;;;;6150262;23;20305;-67
2023/01/08 04:10:05;;;;;;;8.65;7.80;;;6.20;99.90;;;;;;6148198;23;20636;-66
2023/01/08 04:12:32;;;;;;;8.80;8.00;;;6.20;99.90;;;;;;6142794;23;20217;-66
2023/01/08 04:14:59;;;;;;;9.05;8.25;;;6.20;99.90;;;;;;6136358;23;20187;-66
2023/01/08 04:17:27;;;;;;;7.65;7.05;;;6.20;99.90;;;;;;6145784;23;20206;-66
2023/01/08 04:19:54;;;;;;;8.25;7.45;;;6.20;99.90;;;;;;6147958;23;20269;-66
2023/01/08 04:22:21;;;;;;;7.82;7.13;;;6.10;99.90;;;;;;6140629;23;20213;-66
2023/01/08 04:24:48;;;;;;;8.48;7.78;;;6.20;99.90;;;;;;6142819;23;20273;-66
2023/01/08 04:27:15;;;;;;;8.45;7.75;;;6.20;99.90;;;;;;6121845;23;20204;-66
2023/01/08 04:29:42;;;;;;;8.85;7.57;;;6.20;99.90;;;;;;6148919;23;20214;-66
2023/01/08 04:32:09;;;;;;;8.15;7.45;;;6.20;99.90;;;;;;6144305;23;20218;-66
2023/01/08 04:34:38;;;;;;;7.80;7.13;;;6.30;99.90;;;;;;6145944;23;20239;-67
2023/01/08 04:37:04;;;;;;;8.20;7.50;;;6.30;99.90;;;;;;6148657;23;20211;-66
2023/01/08 04:39:31;;;;;;;8.38;7.68;;;6.20;99.90;;;;;;6143927;23;20215;-65
2023/01/08 04:41:59;;;;;;;7.60;6.90;;;6.30;99.90;;;;;;6138815;23;20665;-66
2023/01/08 04:44:26;;;;;;;7.30;6.60;;;6.30;99.90;;;;;;6121960;23;20586;-65
2023/01/08 04:46:52;;;;;;;8.18;7.38;;;6.30;99.90;;;;;;6137282;23;20245;-66
2023/01/08 04:49:20;;;;;;;7.00;6.40;;;6.40;99.90;;;;;;6140728;23;20242;-66
2023/01/08 04:51:48;;;;;;;7.75;7.05;;;6.40;99.90;;;;;;6149970;23;20222;-66
2023/01/08 04:54:15;;;;;;;6.85;6.15;;;6.50;99.90;;;;;;6135823;23;20550;-66
2023/01/08 04:56:42;;;;;;;6.78;6.28;;;6.60;99.90;;;;;;6137796;23;20218;-66
2023/01/08 04:59:09;;;;;;;5.47;5.07;;;6.70;99.90;;;;;;6131559;23;20272;-66
2023/01/08 05:01:36;;;;;;;5.55;5.05;;;6.90;99.90;;;;;;6145700;23;20350;-66
2023/01/08 05:04:05;;;;;;;6.13;5.30;;;7.10;99.90;;;;;;6146337;23;20271;-66
2023/01/08 05:06:32;;;;;;;4.10;3.70;;;7.30;99.90;;;;;;6120442;23;20294;-66
2023/01/08 05:09:01;;;;;;;4.13;2.58;;;7.50;99.90;;;;;;6135823;23;20270;-66
2023/01/08 05:11:28;;;;;;;2.85;2.55;;;7.80;99.90;;;;;;6144856;23;20631;-66
2023/01/08 05:13:55;;;;;;;2.47;2.22;;;8.40;99.90;;;;;;6147473;23;20218;-66
2023/01/08 05:16:22;;;;;;;2.60;2.40;;;8.80;99.90;;;;;;6147289;23;20247;-66
2023/01/08 05:18:50;;;;;;;2.83;2.20;;;9.20;99.90;;;;;;6144363;23;20197;-66
2023/01/08 05:21:17;;;;;;;2.47;2.28;;;9.40;99.90;;;;;;6128466;23;20274;-66
2023/01/08 05:23:46;;;;;;;2.90;2.00;;;9.50;99.90;;;;;;6140193;23;20195;-66
2023/01/08 05:26:16;;;;;;;3.13;2.05;;;9.60;99.90;;;;;;6144295;23;20291;-66
2023/01/08 05:28:43;;;;;;;2.92;2.50;;;9.70;99.90;;;;;;6147664;23;20190;-66
2023/01/08 05:31:10;;;;;;;2.83;2.63;;;9.70;99.90;;;;;;6123847;23;20187;-66
2023/01/08 05:33:38;;;;;;;2.42;2.22;;;9.80;99.90;;;;;;6135666;23;20260;-66
2023/01/08 05:36:06;;;;;;;1.83;1.70;;;9.80;99.90;;;;;;6145817;23;20272;-66
2023/01/08 05:38:34;;;;;;;2.05;1.85;;;9.90;99.90;;;;;;6148650;23;21548;-66
2023/01/08 05:41:01;;;;;;;2.13;1.90;;;9.90;99.90;;;;;;6146218;23;20239;-66
2023/01/08 05:43:29;;;;;;;4.32;1.85;;;9.80;99.90;;;;;;6145739;23;20281;-66
2023/01/08 05:45:58;;;;;;;2.28;2.05;;;9.80;99.90;;;;;;6143145;23;20236;-66
2023/01/08 05:48:25;;;;;;;4.70;1.63;;;9.60;99.90;;;;;;6129843;23;20647;-66
2023/01/08 05:50:52;;;;;;;1.80;1.70;;;9.50;99.90;;;;;;6134431;23;20247;-66
2023/01/08 05:53:19;;;;;;;1.60;1.50;;;9.40;99.90;;;;;;6137809;23;20218;-66
2023/01/08 05:55:46;;;;;;;1.92;1.50;;;9.40;99.90;;;;;;6142770;23;20190;-65
2023/01/08 05:58:17;;;;;;;1.50;1.40;;;9.30;99.90;;;;;;6148597;23;20289;-65
2023/01/08 06:00:46;;;;;;;1.70;1.60;;;9.20;99.90;;;;;;6128873;23;20195;-65
2023/01/08 06:03:13;;;;;;;1.98;1.77;;;9.10;99.90;;;;;;6143834;23;20297;-65
2023/01/08 06:05:40;;;;;;;2.97;1.70;;;9.00;99.90;;;;;;6140030;23;20657;-68
2023/01/08 06:08:07;;;;;;;1.92;1.58;;;8.90;99.90;;;;;;6131209;23;20190;-66
2023/01/08 06:10:34;;;;;;;1.90;1.48;;;8.90;99.90;;;;;;6141477;23;20205;-65
2023/01/08 06:13:01;;;;;;;2.33;1.75;;;8.80;99.90;;;;;;6123954;23;20699;-65
2023/01/08 06:15:28;;;;;;;1.60;1.50;;;8.80;99.90;;;;;;6135679;23;20277;-65
2023/01/08 06:17:56;;;;;;;1.75;1.38;;;8.70;99.90;;;;;;6143245;23;20301;-66
2023/01/08 06:20:23;;;;;;;1.38;1.27;;;8.70;99.90;;;;;;6128966;23;20649;-66
2023/01/08 06:22:53;;;;;;;1.40;1.30;;;8.80;99.90;;;;;;6139662;23;20287;-65
2023/01/08 06:25:20;;;;;;;1.30;1.20;;;8.80;99.90;;;;;;6144992;23;20194;-65
2023/01/08 06:27:50;;;;;;;1.50;1.40;;;8.80;99.90;;;;;;6146939;23;20570;-66
2023/01/08 06:30:18;;;;;;;1.27;1.17;;;8.80;99.90;;;;;;6149871;23;20264;-66
2023/01/08 06:32:45;;;;;;;1.92;1.35;;;8.80;99.90;;;;;;6131873;23;20763;-66
2023/01/08 06:35:13;;;;;;;1.30;1.20;;;8.80;99.90;;;;;;6145632;23;20697;-66
2023/01/08 06:37:40;;;;;;;1.38;1.10;;;8.90;99.90;;;;;;6141276;23;20283;-66
2023/01/08 06:40:08;;;;;;;1.20;1.10;;;8.90;99.90;;;;;;6145523;23;20259;-65
2023/01/08 06:42:35;;;;;;;1.38;1.27;;;8.90;99.90;;;;;;6137458;23;20209;-66
2023/01/08 06:45:02;;;;;;;1.40;1.02;;;9.10;99.90;;;;;;6147223;23;20540;-66
2023/01/08 06:47:29;;;;;;;0.93;0.90;;;9.10;99.90;;;;;;6139925;23;20628;-66
2023/01/08 06:49:58;;;;;;;1.20;1.10;;;9.20;99.90;;;;;;6124384;23;20202;-66
2023/01/08 06:52:26;;;;;;;1.13;1.02;;;9.20;99.90;;;;;;6149207;23;20206;-66
2023/01/08 06:54:53;;;;;;;3.00;1.00;;;9.30;99.90;;;;;;6137157;23;20638;-66
2023/01/08 06:57:20;;;;;;;0.90;0.90;;;9.30;99.90;;;;;;6130910;23;20674;-66
2023/01/08 06:59:47;;;;;;;0.98;0.90;;;9.30;99.90;;;;;;6127953;23;20613;-66
2023/01/08 07:02:15;;;;;;;1.10;1.00;;;9.40;99.90;;;;;;6129131;23;20197;-66
2023/01/08 07:04:42;;;;;;;0.90;0.90;;;9.50;99.90;;;;;;6147719;23;20464;-66
2023/01/08 07:07:12;;;;;;;0.93;0.93;;;9.60;99.90;;;;;;6146818;23;20214;-66
2023/01/08 07:09:40;;;;;;;1.20;1.10;;;9.60;99.90;;;;;;6149417;23;20323;-66
2023/01/08 07:12:11;;;;;;;1.05;0.90;;;9.60;99.90;;;;;;6144579;23;20196;-66
2023/01/08 07:14:38;;;;;;;1.10;1.00;;;9.70;99.90;;;;;;6129203;23;20199;-66
2023/01/08 07:17:05;;;;;;;1.20;1.10;;;9.70;99.90;;;;;;6139412;23;20214;-67
2023/01/08 07:19:32;;;;;;;1.10;1.00;;;9.70;99.90;;;;;;6148485;23;20190;-66
2023/01/08 07:21:59;;;;;;;1.10;1.02;;;9.70;99.90;;;;;;6143785;23;20199;-65
2023/01/08 07:24:26;;;;;;;1.45;0.98;;;9.70;99.90;;;;;;6137582;23;20275;-67
2023/01/08 07:26:55;;;;;;;1.30;1.00;;;9.70;99.90;;;;;;6136796;23;20210;-67
2023/01/08 07:29:22;;;;;;;1.00;0.90;;;9.70;99.90;;;;;;6143009;23;20217;-66
2023/01/08 07:31:49;;;;;;;1.00;0.85;;;9.70;99.90;;;;;;6141368;23;20190;-66
2023/01/08 07:34:16;;;;;;;1.23;0.80;;;9.70;99.90;;;;;;6131837;23;20293;-66
2023/01/08 07:36:43;;;;;;;1.05;0.95;;;9.70;99.90;;;;;;6154385;23;20689;-67
2023/01/08 07:39:10;;;;;;;1.05;0.90;;;9.70;99.90;;;;;;6158022;23;20581;-66
2023/01/08 07:41:37;;;;;;;0.90;0.80;;;9.70;99.90;;;;;;6144054;23;20707;-66
2023/01/08 07:44:05;;;;;;;1.00;0.80;;;9.70;99.90;;;;;;6148808;23;20264;-66
2023/01/08 07:46:33;;;;;;;1.90;1.20;;;9.70;99.90;;;;;;6145207;23;20332;-66
2023/01/08 07:49:00;;;;;;;0.80;0.80;;;9.50;99.90;;;;;;6135712;23;20550;-66
2023/01/08 07:51:27;;;;;;;1.10;1.00;;;9.40;99.90;;;;;;6142539;23;20619;-65
2023/01/08 07:53:55;;;;;;;1.13;1.02;;;9.40;99.90;;;;;;6145800;23;20756;-67
2023/01/08 07:56:22;;;;;;;1.00;0.90;;;9.30;99.90;;;;;;6148472;23;20543;-67
2023/01/08 07:58:49;;;;;;;1.17;1.08;;;9.30;99.90;;;;;;6139523;23;20274;-67
2023/01/08 08:01:18;;;;;;;1.10;1.00;;;9.30;99.90;;;;;;6147713;23;20633;-66
2023/01/08 08:03:45;;;;;;;0.90;0.90;;;9.30;99.90;;;;;;6134878;23;20240;-66
2023/01/08 08:06:12;;;;;;;2.25;0.88;;;9.20;99.90;;;;;;6150511;23;20689;-67
2023/01/08 08:08:39;;;;;;;1.20;0.82;;;9.20;99.90;;;;;;6129186;23;20193;-66
2023/01/08 08:11:06;;;;;;;1.60;1.50;;;9.10;99.90;;;;;;6143467;23;20637;-66
2023/01/08 08:13:33;;;;;;;1.20;1.10;;;9.10;99.90;;;;;;6142976;23;20218;-65
2023/01/08 08:16:04;;;;;;;1.08;0.98;;;9.10;99.90;;;;;;6142316;23;20206;-66
2023/01/08 08:18:32;;;;;;;1.60;1.50;;;9.00;99.90;;;;;;6140409;23;20281;-66
2023/01/08 08:20:59;;;;;;;1.33;1.23;;;9.00;99.90;;;;;;6137346;23;20217;-66
2023/01/08 08:23:26;;;;;;;1.20;1.10;;;8.90;99.90;;;;;;6146095;23;20275;-66
2023/01/08 08:25:53;;;;;;;1.10;1.00;;;8.90;99.90;;;;;;6135333;23;20223;-66
2023/01/08 08:28:20;;;;;;;2.33;1.50;;;8.90;99.90;;;;;;6127544;23;20576;-65
2023/01/08 08:30:47;;;;;;;1.45;1.00;;;8.80;99.90;;;;;;6140628;23;20194;-65
2023/01/08 08:33:14;;;;;;;1.02;0.90;;;8.80;99.90;;;;;;6147603;23;20625;-65
2023/01/08 08:35:49;;;;;;;1.80;1.33;;;8.80;99.90;;;;;;6142442;23;20263;-65
2023/01/08 08:38:16;;;;;;;1.42;1.10;;;8.80;99.90;;;;;;6120721;23;20717;-65
2023/01/08 08:40:43;;;;;;;1.10;0.93;;;8.80;99.90;;;;;;6140589;23;20194;-66
2023/01/08 08:43:10;;;;;;;1.25;1.15;;;8.80;99.90;;;;;;6150174;23;20194;-66
2023/01/08 08:45:38;;;;;;;1.10;1.00;;;8.80;99.90;;;;;;6143688;23;20289;-66
2023/01/08 08:48:06;;;;;;;1.02;0.93;;;8.80;99.90;;;;;;6119887;23;20217;-66
2023/01/08 08:50:33;;;;;;;1.73;1.45;;;8.80;99.90;;;;;;6135183;23;20282;-66
2023/01/08 08:53:02;;;;;;;1.45;1.35;;;8.80;99.90;;;;;;6132323;23;20210;-66
2023/01/08 08:55:29;;;;;;;1.30;1.10;;;8.80;99.90;;;;;;6149376;23;20269;-66
2023/01/08 08:58:03;;;;;;;1.25;0.90;;;8.80;99.90;;;;;;6146929;23;20194;-67
2023/01/08 09:00:31;;;;;;;1.65;1.00;;;8.70;99.90;;;;;;6136589;23;20579;-67
2023/01/08 09:02:58;;;;;;;1.10;1.00;;;8.70;99.90;;;;;;6146434;23;20736;-67
2023/01/08 09:05:25;;;;;;;1.10;1.00;;;8.70;99.90;;;;;;6133898;23;20220;-67
2023/01/08 09:07:53;;;;;;;2.35;1.20;;;8.80;99.90;;;;;;6134414;23;20661;-67
2023/01/08 09:10:21;;;;;;;2.03;1.02;;;8.80;99.90;;;;;;6132848;23;20194;-66
2023/01/08 09:12:49;;;;;;;1.33;1.20;;;8.80;99.90;;;;;;6147026;23;20186;-67
2023/01/08 09:15:16;;;;;;;1.77;1.20;;;8.90;99.90;;;;;;6130744;23;20328;-66
2023/01/08 09:17:43;;;;;;;1.35;1.13;;;8.90;99.90;;;;;;6130169;23;20213;-67
2023/01/08 09:20:11;;;;;;;1.20;1.10;;;8.90;99.90;;;;;;6132035;23;20206;-67
2023/01/08 09:22:39;;;;;;;1.10;1.00;;;9.00;99.90;;;;;;6136449;23;20569;-66
2023/01/08 09:25:06;;;;;;;2.22;1.10;;;9.00;99.90;;;;;;6142331;23;20206;-67
2023/01/08 09:27:34;;;;;;;2.17;1.05;;;9.10;99.90;;;;;;6139848;23;20208;-68
2023/01/08 09:30:01;;;;;;;2.28;1.20;;;9.10;99.90;;;;;;6127374;23;20712;-67
2023/01/08 09:32:28;;;;;;;1.23;1.13;;;9.20;99.90;;;;;;6135997;23;20243;-67
2023/01/08 09:34:55;;;;;;;1.25;1.15;;;9.20;99.90;;;;;;6143169;23;20297;-68
2023/01/08 09:37:23;;;;;;;1.33;1.10;;;9.20;99.90;;;;;;6140251;23;20648;-68
2023/01/08 09:39:50;;;;;;;1.52;1.20;;;9.20;99.90;;;;;;6137910;23;20187;-67
2023/01/08 09:42:21;;;;;;;1.13;1.02;;;9.20;99.90;;;;;;6121911;23;20175;-68
2023/01/08 09:44:53;;;;;;;1.13;1.02;;;9.20;99.90;;;;;;6134030;23;20204;-68
2023/01/08 09:47:24;;;;;;;1.30;1.20;;;9.30;99.90;;;;;;6135624;23;20210;-68
2023/01/08 09:49:55;;;;;;;1.70;1.20;;;9.30;99.90;;;;;;6126946;23;20200;-68
2023/01/08 09:52:22;;;;;;;0.95;0.93;;;9.30;99.90;;;;;;6138128;23;20694;-68
2023/01/08 09:54:48;;;;;;;1.00;0.90;;;9.30;99.90;;;;;;6128274;23;20211;-68
2023/01/08 09:57:18;;;;;;;1.10;1.00;;;9.40;99.90;;;;;;6139678;23;20682;-67
2023/01/08 09:59:47;;;;;;;1.48;1.20;;;9.40;99.90;;;;;;6129559;23;20186;-67
2023/01/08 10:02:17;;;;;;;1.30;1.20;;;9.40;99.90;;;;;;6124689;23;20667;-68
2023/01/08 10:04:45;;;;;;;1.10;1.00;;;9.40;99.90;;;;;;6132338;23;20663;-67
2023/01/08 10:07:20;;;;;;;1.58;1.08;;;9.40;99.90;;;;;;6125908;23;20290;-76
2023/01/08 10:09:49;;;;;;;1.08;1.08;;;9.50;99.90;;;;;;6145410;23;20213;-76
2023/01/08 10:12:26;;;;;;;1.55;1.30;;;9.50;99.90;;;;;;6138545;23;20642;-76
2023/01/08 10:14:56;;;;;;;3.15;1.38;;;9.50;99.90;;;;;;6134780;23;20211;-67
2023/01/08 10:17:34;;;;;;;2.30;1.80;;;9.50;99.90;;;;;;6143561;23;20210;-67
2023/01/08 10:20:01;;;;;;;2.25;1.80;;;9.50;99.90;;;;;;6144404;23;20174;-67
2023/01/08 10:22:32;;;;;;;3.00;2.67;;;9.60;99.90;;;;;;6126937;23;20191;-67
2023/01/08 10:25:06;;;;;;;1.73;1.63;;;9.60;99.90;;;;;;6146450;23;20190;-67
2023/01/08 10:27:44;;;;;;;1.80;1.70;;;9.60;99.90;;;;;;6130133;23;20214;-68
2023/01/08 10:30:16;;;;;;;2.65;2.45;;;9.60;99.90;;;;;;6120783;23;20258;-67
2023/01/08 10:32:51;;;;;;;1.88;1.70;;;9.70;99.90;;;;;;6147729;23;20218;-67
2023/01/08 10:35:21;;;;;;;1.90;1.75;;;9.70;99.90;;;;;;6139603;23;20253;-68
2023/01/08 10:37:49;;;;;;;2.08;1.98;;;9.70;99.90;;;;;;6122865;23;20608;-67
2023/01/08 10:40:28;;;;;;;1.20;1.10;;;9.70;99.90;;;;;;6132359;23;20238;-68
2023/01/08 10:42:56;;;;;;;1.33;1.23;;;9.80;99.90;;;;;;6117807;23;20290;-68
2023/01/08 10:45:26;;;;;;;0.90;0.90;;;9.80;99.90;;;;;;6117971;23;20211;-67
2023/01/08 10:47:58;;;;;;;1.40;1.30;;;9.90;99.90;;;;;;6118155;23;20194;-68
2023/01/08 10:50:28;;;;;;;1.03;1.00;;;9.90;99.90;;;;;;6075953;23;1498959;-68
2023/01/08 10:52:56;;;;;;;1.20;1.02;;;9.90;99.90;;;;;;6121843;23;20195;-67
2023/01/08 10:55:26;;;;;;;1.20;1.10;;;9.90;99.90;;;;;;6119561;23;20294;-67
2023/01/08 10:57:57;;;;;;;1.30;1.08;;;9.90;99.90;;;;;;6140187;23;20265;-67
2023/01/08 11:00:25;;;;;;;1.33;1.23;;;9.90;99.90;;;;;;6128701;23;20186;-68
2023/01/08 11:02:54;;;;;;;1.20;0.90;;;9.90;99.90;;;;;;6150202;23;20664;-66
2023/01/08 11:05:29;;;;;;;1.20;0.90;;;9.90;99.90;;;;;;6145480;23;20218;-68
2023/01/08 11:07:58;;;;;;;1.00;0.90;;;10.00;99.90;;;;;;6141440;23;20187;-67
2023/01/08 11:10:28;;;;;;;1.20;1.00;;;10.00;99.90;;;;;;6131411;23;20187;-67
2023/01/08 11:12:58;;;;;;;0.98;0.88;;;10.00;99.90;;;;;;6150472;23;20191;-68
2023/01/08 11:15:31;;;;;;;1.35;1.25;;;10.10;99.90;;;;;;6150388;23;20225;-67
2023/01/08 11:18:17;;;;;;;0.80;0.80;;;10.10;99.90;;;;;;6149859;23;20190;-68
2023/01/08 11:20:45;;;;;;;0.90;0.80;;;10.20;99.90;;;;;;6125992;23;20191;-67
2023/01/08 11:23:18;;;;;;;1.42;0.90;;;10.20;99.90;;;;;;6121338;23;20191;-67
2023/01/08 11:25:51;;;;;;;1.02;0.90;;;10.20;99.90;;;;;;6121299;23;20269;-68
2023/01/08 11:28:28;;;;;;;1.80;1.15;;;10.20;99.90;;;;;;6125374;23;20337;-67
2023/01/08 11:31:02;;;;;;;1.17;0.90;;;10.20;99.90;;;;;;6129457;23;20620;-67
2023/01/08 11:33:34;;;;;;;0.82;0.70;;;10.30;99.90;;;;;;6150683;23;20268;-67
2023/01/08 11:36:10;;;;;;;1.00;0.90;;;10.30;99.90;;;;;;6149212;23;20218;-67
2023/01/08 11:38:37;;;;;;;0.65;0.60;;;10.30;99.90;;;;;;6122605;23;20539;-68
2023/01/08 11:41:19;;;;;;;1.05;0.90;;;10.40;99.90;;;;;;6143700;23;20537;-67
2023/01/08 11:44:00;;;;;;;1.00;0.90;;;10.40;99.90;;;;;;6150885;23;20195;-67
2023/01/08 11:46:37;;;;;;;1.25;0.82;;;10.50;99.90;;;;;;6148564;23;20682;-67
2023/01/08 11:49:30;;;;;;;0.90;0.80;;;10.50;99.90;;;;;;6125892;23;20210;-67
2023/01/08 11:52:06;;;;;;;1.10;1.05;;;10.50;99.90;;;;;;6128981;23;20191;-67
2023/01/08 11:54:53;;;;;;;1.02;0.80;;;10.60;99.90;;;;;;6121050;23;20299;-67
2023/01/08 11:57:32;;;;;;;1.08;0.70;;;10.60;99.90;;;;;;6132972;23;20196;-67
2023/01/08 12:00:12;;;;;;;1.10;0.90;;;10.60;99.90;;;;;;6137563;23;20566;-67
2023/01/08 12:02:52;;;;;;;0.77;0.77;;;10.60;99.90;;;;;;6147062;23;20189;-67
2023/01/08 12:05:27;;;;;;;0.90;0.80;;;10.60;99.90;;;;;;6150140;23;20686;-67
2023/01/08 12:08:01;;;;;;;1.15;1.00;;;10.60;99.90;;;;;;6150131;23;20222;-67
2023/01/08 12:10:36;;;;;;;0.70;0.70;;;10.60;99.90;;;;;;6149776;23;20175;-67
2023/01/08 12:13:16;;;;;;;0.80;0.70;;;10.60;99.90;;;;;;6126381;23;20192;-67
2023/01/08 12:15:56;;;;;;;0.80;0.80;;;10.60;99.90;;;;;;6149867;23;20274;-67
2023/01/08 12:18:55;;;;;;;1.33;0.70;;;10.50;99.90;;;;;;6127301;23;20191;-67
2023/01/08 12:21:31;;;;;;;0.80;0.68;;;10.40;99.90;;;;;;6136608;23;20688;-67
2023/01/08 12:24:21;;;;;;;0.80;0.80;;;10.40;99.90;;;;;;6120926;23;20193;-67
2023/01/08 12:26:59;;;;;;;0.88;0.77;;;10.40;99.90;;;;;;6123570;23;20203;-67
2023/01/08 12:29:39;;;;;;;0.85;0.85;;;10.50;99.90;;;;;;6148909;23;20254;-68
2023/01/08 12:32:27;;;;;;;0.88;0.85;;;10.50;99.90;;;;;;6126617;23;20280;-67
2023/01/08 12:35:03;;;;;;;1.00;0.80;;;10.60;99.90;;;;;;6120657;23;20670;-67
2023/01/08 12:37:35;;;;;;;0.80;0.80;;;10.50;99.90;;;;;;6120878;23;20201;-67
2023/01/08 12:40:11;;;;;;;0.90;0.82;;;10.50;99.90;;;;;;6120673;23;20539;-67
2023/01/08 12:42:42;;;;;;;0.82;0.70;;;10.50;99.90;;;;;;6146380;23;20223;-67
2023/01/08 12:45:17;;;;;;;0.80;0.80;;;10.50;99.90;;;;;;6149907;23;20257;-66
2023/01/08 12:47:50;;;;;;;0.70;0.70;;;10.50;99.90;;;;;;6138901;23;20225;-67
2023/01/08 12:50:27;;;;;;;0.70;0.70;;;10.50;99.90;;;;;;6149386;23;20379;-67
2023/01/08 12:53:04;;;;;;;1.40;0.70;;;10.50;99.90;;;;;;6148183;23;20308;-68
2023/01/08 12:55:41;;;;;;;0.93;0.82;;;10.50;99.90;;;;;;6149348;23;20764;-68
2023/01/08 12:58:22;;;;;;;0.70;0.70;;;10.50;99.90;;;;;;6120987;23;20180;-68
2023/01/08 13:00:56;;;;;;;0.70;0.70;;;10.60;99.90;;;;;;6132718;23;20187;-68
2023/01/08 13:03:26;;;;;;;0.60;0.60;;;10.60;99.90;;;;;;6149871;23;20314;-67
2023/01/08 13:06:04;;;;;;;0.60;0.60;;;10.50;99.90;;;;;;6136180;23;20211;-67
2023/01/08 13:08:35;;;;;;;0.75;0.75;;;10.50;99.90;;;;;;6149657;23;20634;-67
2023/01/08 13:11:03;;;;;;;0.82;0.82;;;10.60;99.90;;;;;;6149727;23;20221;-67